createdAt,value
2023-05-12T00:00:06.522Z,0.00
2023-05-12T00:01:06.474Z,0.00
2023-05-12T00:02:06.454Z,0.00
2023-05-12T00:03:06.607Z,0.00
2023-05-12T00:04:06.569Z,0.00
2023-05-12T00:05:06.458Z,0.00
2023-05-12T00:06:06.438Z,0.00
2023-05-12T00:07:06.399Z,0.00
2023-05-12T00:08:06.400Z,0.00
2023-05-12T00:09:06.386Z,0.00
2023-05-12T00:10:06.419Z,0.00
2023-05-12T00:11:06.362Z,0.00
2023-05-12T00:12:06.351Z,0.00
2023-05-12T00:13:06.351Z,0.00
2023-05-12T00:14:06.437Z,0.00
2023-05-12T00:15:06.368Z,0.00
2023-05-12T00:16:06.364Z,0.00
2023-05-12T00:17:06.325Z,0.00
2023-05-12T00:18:06.353Z,0.00
2023-05-12T00:19:06.455Z,0.00
2023-05-12T00:20:06.293Z,0.00
2023-05-12T00:21:06.252Z,0.00
2023-05-12T00:22:06.263Z,0.00
2023-05-12T00:23:06.237Z,0.00
2023-05-12T00:24:06.237Z,0.00
2023-05-12T00:25:06.169Z,0.00
2023-05-12T00:26:06.160Z,0.00
2023-05-12T00:27:06.183Z,0.00
2023-05-12T00:28:06.196Z,0.00
2023-05-12T00:29:06.185Z,0.00
2023-05-12T00:30:06.143Z,0.00
2023-05-12T00:31:06.194Z,0.00
2023-05-12T00:32:06.112Z,0.00
2023-05-12T00:33:06.284Z,0.00
2023-05-12T00:34:06.103Z,0.00
2023-05-12T00:35:06.076Z,0.00
2023-05-12T00:36:06.073Z,0.00
2023-05-12T00:37:06.066Z,0.00
2023-05-12T00:38:06.083Z,0.00
2023-05-12T00:39:06.058Z,0.00
2023-05-12T00:40:06.053Z,0.00
2023-05-12T00:41:06.023Z,0.00
2023-05-12T00:42:06.046Z,0.00
2023-05-12T00:43:06.038Z,0.00
2023-05-12T00:44:05.978Z,0.00
2023-05-12T00:45:05.993Z,0.00
2023-05-12T00:46:06.008Z,0.00
2023-05-12T00:47:05.985Z,0.00
2023-05-12T00:48:05.957Z,0.00
2023-05-12T00:49:05.948Z,0.00
2023-05-12T00:50:05.923Z,0.00
2023-05-12T00:51:05.883Z,0.00
2023-05-12T00:52:05.933Z,0.00
2023-05-12T00:53:05.894Z,0.00
2023-05-12T00:54:05.882Z,0.00
2023-05-12T00:55:05.873Z,0.00
2023-05-12T00:56:05.881Z,0.00
2023-05-12T00:57:05.857Z,0.00
2023-05-12T00:58:05.836Z,0.00
2023-05-12T00:59:05.826Z,0.00
2023-05-12T01:00:05.803Z,0.00
2023-05-12T01:01:05.869Z,0.00
2023-05-12T01:02:05.854Z,0.00
2023-05-12T01:03:05.959Z,0.00
2023-05-12T01:04:05.757Z,0.00
2023-05-12T01:05:05.744Z,0.00
2023-05-12T01:06:05.787Z,0.00
2023-05-12T01:07:05.792Z,0.00
2023-05-12T01:08:05.719Z,0.00
2023-05-12T01:09:05.717Z,0.00
2023-05-12T01:10:05.714Z,0.00
2023-05-12T01:11:05.729Z,0.00
2023-05-12T01:12:05.700Z,0.00
2023-05-12T01:13:05.656Z,0.00
2023-05-12T01:14:05.646Z,0.00
2023-05-12T01:15:05.711Z,0.00
2023-05-12T01:16:05.662Z,0.00
2023-05-12T01:17:05.638Z,0.00
2023-05-12T01:18:05.716Z,0.00
2023-05-12T01:19:05.638Z,0.00
2023-05-12T01:20:05.624Z,0.00
2023-05-12T01:21:05.586Z,0.00
2023-05-12T01:22:05.588Z,0.00
2023-05-12T01:23:05.565Z,0.00
2023-05-12T01:24:05.525Z,0.00
2023-05-12T01:25:05.575Z,0.00
2023-05-12T01:26:05.617Z,0.00
2023-05-12T01:27:05.485Z,0.00
2023-05-12T01:28:05.536Z,0.00
2023-05-12T01:29:05.543Z,0.00
2023-05-12T01:30:05.535Z,0.00
2023-05-12T01:31:05.518Z,0.00
2023-05-12T01:32:05.472Z,0.00
2023-05-12T01:33:05.476Z,0.00
2023-05-12T01:34:05.476Z,0.00
2023-05-12T01:35:05.442Z,0.00
2023-05-12T01:36:05.398Z,0.00
2023-05-12T01:37:05.391Z,0.00
2023-05-12T01:38:05.408Z,0.00
2023-05-12T01:39:05.416Z,0.00
2023-05-12T01:40:05.352Z,0.00
2023-05-12T01:41:05.344Z,0.00
2023-05-12T01:42:05.347Z,0.00
2023-05-12T01:43:05.364Z,0.00
2023-05-12T01:44:05.328Z,0.00
2023-05-12T01:45:05.315Z,0.00
2023-05-12T01:46:05.325Z,0.00
2023-05-12T01:47:05.285Z,0.00
2023-05-12T01:48:05.327Z,0.00
2023-05-12T01:49:06.100Z,0.00
2023-05-12T01:50:05.256Z,0.00
2023-05-12T01:51:05.244Z,0.00
2023-05-12T01:52:05.228Z,0.00
2023-05-12T01:53:05.252Z,0.00
2023-05-12T01:54:05.245Z,0.00
2023-05-12T01:55:05.191Z,0.00
2023-05-12T01:56:05.167Z,0.00
2023-05-12T01:57:05.185Z,0.00
2023-05-12T01:58:05.174Z,0.00
2023-05-12T01:59:05.269Z,0.00
2023-05-12T02:00:05.137Z,0.00
2023-05-12T02:01:05.130Z,0.00
2023-05-12T02:02:05.153Z,0.00
2023-05-12T02:03:05.182Z,0.00
2023-05-12T02:04:05.206Z,0.00
2023-05-12T02:05:05.116Z,0.00
2023-05-12T02:06:05.067Z,0.00
2023-05-12T02:07:05.108Z,0.00
2023-05-12T02:08:05.043Z,0.00
2023-05-12T02:09:05.039Z,0.00
2023-05-12T02:10:05.044Z,0.00
2023-05-12T02:11:05.062Z,0.00
2023-05-12T02:12:05.045Z,0.00
2023-05-12T02:13:04.997Z,0.00
2023-05-12T02:14:04.994Z,0.00
2023-05-12T02:15:04.961Z,0.00
2023-05-12T02:16:05.068Z,0.00
2023-05-12T02:17:04.936Z,0.00
2023-05-12T02:18:04.962Z,0.00
2023-05-12T02:19:05.078Z,0.00
2023-05-12T02:20:04.895Z,0.00
2023-05-12T02:21:04.931Z,0.00
2023-05-12T02:22:04.883Z,0.00
2023-05-12T02:23:04.889Z,0.00
2023-05-12T02:24:04.862Z,0.00
2023-05-12T02:25:04.876Z,0.00
2023-05-12T02:26:04.855Z,0.00
2023-05-12T02:27:04.800Z,0.00
2023-05-12T02:28:04.820Z,0.00
2023-05-12T02:29:04.791Z,0.00
2023-05-12T02:30:04.826Z,0.00
2023-05-12T02:31:04.773Z,0.00
2023-05-12T02:32:04.888Z,4.00
2023-05-12T02:33:04.814Z,4.00
2023-05-12T02:34:06.621Z,0.00
2023-05-12T02:35:04.794Z,0.00
2023-05-12T02:36:04.739Z,4.00
2023-05-12T02:37:04.731Z,4.00
2023-05-12T02:38:04.698Z,4.00
2023-05-12T02:39:04.737Z,4.00
2023-05-12T02:40:04.724Z,4.00
2023-05-12T02:41:04.703Z,4.00
2023-05-12T02:42:04.645Z,4.00
2023-05-12T02:43:04.624Z,4.00
2023-05-12T02:44:04.665Z,8.00
2023-05-12T02:45:04.621Z,8.00
2023-05-12T02:46:04.678Z,8.00
2023-05-12T02:47:04.611Z,12.00
2023-05-12T02:48:04.650Z,12.00
2023-05-12T02:49:04.629Z,12.00
2023-05-12T02:50:04.567Z,16.00
2023-05-12T02:51:04.563Z,20.00
2023-05-12T02:52:04.547Z,24.00
2023-05-12T02:53:04.533Z,28.00
2023-05-12T02:54:04.584Z,32.00
2023-05-12T02:55:04.507Z,36.00
2023-05-12T02:56:04.488Z,40.00
2023-05-12T02:57:04.480Z,48.00
2023-05-12T02:58:04.508Z,52.00
2023-05-12T02:59:04.461Z,60.00
2023-05-12T03:00:04.467Z,68.00
2023-05-12T03:01:10.866Z,76.00
2023-05-12T03:02:05.606Z,88.00
2023-05-12T03:03:04.525Z,100.00
2023-05-12T03:04:04.403Z,108.00
2023-05-12T03:05:04.404Z,124.00
2023-05-12T03:06:04.384Z,136.00
2023-05-12T03:07:04.403Z,156.00
2023-05-12T03:08:04.415Z,168.00
2023-05-12T03:09:04.332Z,188.00
2023-05-12T03:10:04.346Z,208.00
2023-05-12T03:11:04.348Z,228.00
2023-05-12T03:12:04.365Z,252.00
2023-05-12T03:13:04.304Z,276.00
2023-05-12T03:14:04.316Z,300.00
2023-05-12T03:15:04.276Z,328.00
2023-05-12T03:16:04.310Z,356.00
2023-05-12T03:17:04.345Z,388.00
2023-05-12T03:18:04.311Z,424.00
2023-05-12T03:19:04.268Z,456.00
2023-05-12T03:20:04.230Z,492.00
2023-05-12T03:21:04.234Z,528.00
2023-05-12T03:22:04.197Z,568.00
2023-05-12T03:23:04.178Z,612.00
2023-05-12T03:24:04.168Z,652.00
2023-05-12T03:25:04.163Z,700.00
2023-05-12T03:26:04.203Z,748.00
2023-05-12T03:27:04.178Z,792.00
2023-05-12T03:28:04.148Z,840.00
2023-05-12T03:29:04.142Z,892.00
2023-05-12T03:30:04.142Z,944.00
2023-05-12T03:31:04.206Z,996.00
2023-05-12T03:32:04.108Z,1052.00
2023-05-12T03:33:04.133Z,1108.00
2023-05-12T03:34:04.089Z,1160.00
2023-05-12T03:35:04.103Z,1220.00
2023-05-12T03:36:04.049Z,1280.00
2023-05-12T03:37:04.045Z,1336.00
2023-05-12T03:38:04.052Z,1400.00
2023-05-12T03:39:04.000Z,1456.00
2023-05-12T03:40:04.046Z,1512.00
2023-05-12T03:41:03.992Z,1576.00
2023-05-12T03:42:03.987Z,1636.00
2023-05-12T03:43:03.986Z,1696.00
2023-05-12T03:44:03.959Z,1768.00
2023-05-12T03:45:03.987Z,1832.00
2023-05-12T03:46:04.149Z,1896.00
2023-05-12T03:47:04.025Z,1944.00
2023-05-12T03:48:03.953Z,2004.00
2023-05-12T03:49:04.032Z,2072.00
2023-05-12T03:50:03.904Z,2132.00
2023-05-12T03:51:03.857Z,2196.00
2023-05-12T03:52:03.861Z,2256.00
2023-05-12T03:53:03.856Z,2312.00
2023-05-12T03:54:03.865Z,2384.00
2023-05-12T03:55:03.819Z,2492.00
2023-05-12T03:56:03.833Z,2552.00
2023-05-12T03:57:03.810Z,2564.00
2023-05-12T03:58:03.848Z,2608.00
2023-05-12T03:59:03.804Z,2660.00
2023-05-12T04:00:03.782Z,2724.00
2023-05-12T04:01:03.749Z,2776.00
2023-05-12T04:02:03.800Z,2836.00
2023-05-12T04:03:03.831Z,2892.00
2023-05-12T04:04:03.811Z,2940.00
2023-05-12T04:05:03.717Z,2992.00
2023-05-12T04:06:03.716Z,3036.00
2023-05-12T04:07:03.712Z,3080.00
2023-05-12T04:08:03.744Z,3152.00
2023-05-12T04:09:03.663Z,3204.00
2023-05-12T04:10:03.687Z,3264.00
2023-05-12T04:11:03.679Z,3340.00
2023-05-12T04:12:03.685Z,3584.00
2023-05-12T04:13:03.691Z,3956.00
2023-05-12T04:14:03.617Z,4540.00
2023-05-12T04:15:03.617Z,4960.00
2023-05-12T04:16:03.626Z,5048.00
2023-05-12T04:17:03.636Z,5156.00
2023-05-12T04:18:03.608Z,5256.00
2023-05-12T04:19:03.740Z,5352.00
2023-05-12T04:20:03.560Z,5444.00
2023-05-12T04:21:03.587Z,5568.00
2023-05-12T04:22:03.567Z,5644.00
2023-05-12T04:23:03.539Z,5780.00
2023-05-12T04:24:03.492Z,5900.00
2023-05-12T04:25:03.480Z,6024.00
2023-05-12T04:26:03.503Z,6160.00
2023-05-12T04:27:03.483Z,6272.00
2023-05-12T04:28:03.467Z,6372.00
2023-05-12T04:29:03.471Z,6488.00
2023-05-12T04:30:03.464Z,6636.00
2023-05-12T04:31:03.476Z,6792.00
2023-05-12T04:32:03.498Z,6932.00
2023-05-12T04:33:03.479Z,6988.00
2023-05-12T04:34:03.431Z,7060.00
2023-05-12T04:35:03.393Z,7176.00
2023-05-12T04:36:03.404Z,7280.00
2023-05-12T04:37:03.368Z,7424.00
2023-05-12T04:38:03.469Z,7568.00
2023-05-12T04:39:03.347Z,7668.00
2023-05-12T04:40:03.377Z,7768.00
2023-05-12T04:41:03.356Z,7900.00
2023-05-12T04:42:03.297Z,8048.00
2023-05-12T04:43:03.302Z,8088.00
2023-05-12T04:44:03.301Z,8228.00
2023-05-12T04:45:03.309Z,8432.00
2023-05-12T04:46:03.283Z,8584.00
2023-05-12T04:47:03.254Z,8716.00
2023-05-12T04:48:03.296Z,8808.00
2023-05-12T04:49:03.223Z,8852.00
2023-05-12T04:50:03.253Z,8928.00
2023-05-12T04:51:03.201Z,9032.00
2023-05-12T04:52:03.203Z,9060.00
2023-05-12T04:53:03.164Z,8988.00
2023-05-12T04:54:03.155Z,8932.00
2023-05-12T04:55:03.184Z,8928.00
2023-05-12T04:56:03.150Z,9000.00
2023-05-12T04:57:03.137Z,9104.00
2023-05-12T04:58:03.135Z,9176.00
2023-05-12T04:59:03.153Z,9240.00
2023-05-12T05:00:03.147Z,9224.00
2023-05-12T05:01:03.100Z,9192.00
2023-05-12T05:02:03.083Z,9104.00
2023-05-12T05:03:03.117Z,8960.00
2023-05-12T05:04:03.121Z,8812.00
2023-05-12T05:05:03.024Z,8684.00
2023-05-12T05:06:03.064Z,8552.00
2023-05-12T05:07:03.036Z,8452.00
2023-05-12T05:08:03.084Z,8312.00
2023-05-12T05:09:03.023Z,8124.00
2023-05-12T05:10:03.009Z,8020.00
2023-05-12T05:11:02.982Z,7968.00
2023-05-12T05:12:02.971Z,7872.00
2023-05-12T05:13:03.004Z,7776.00
2023-05-12T05:14:02.944Z,7676.00
2023-05-12T05:15:02.949Z,7592.00
2023-05-12T05:16:02.977Z,7544.00
2023-05-12T05:17:02.902Z,7484.00
2023-05-12T05:18:03.019Z,7416.00
2023-05-12T05:19:06.500Z,7380.00
2023-05-12T05:20:09.492Z,7360.00
2023-05-12T05:21:03.894Z,7332.00
2023-05-12T05:22:02.831Z,7328.00
2023-05-12T05:23:02.863Z,7304.00
2023-05-12T05:24:02.845Z,7272.00
2023-05-12T05:25:02.850Z,7264.00
2023-05-12T05:26:02.827Z,7252.00
2023-05-12T05:27:02.821Z,7256.00
2023-05-12T05:28:02.830Z,7280.00
2023-05-12T05:29:02.784Z,7308.00
2023-05-12T05:30:02.779Z,7284.00
2023-05-12T05:31:02.766Z,7284.00
2023-05-12T05:32:02.782Z,7296.00
2023-05-12T05:33:02.905Z,7300.00
2023-05-12T05:34:02.792Z,7304.00
2023-05-12T05:35:02.693Z,7308.00
2023-05-12T05:36:02.728Z,7324.00
2023-05-12T05:37:02.745Z,7308.00
2023-05-12T05:38:02.690Z,7300.00
2023-05-12T05:39:02.661Z,7316.00
2023-05-12T05:40:02.652Z,7324.00
2023-05-12T05:41:02.650Z,7340.00
2023-05-12T05:42:02.678Z,7356.00
2023-05-12T05:43:02.646Z,7368.00
2023-05-12T05:44:02.643Z,7372.00
2023-05-12T05:45:02.627Z,7392.00
2023-05-12T05:46:02.622Z,7380.00
2023-05-12T05:47:02.665Z,7396.00
2023-05-12T05:48:02.578Z,7400.00
2023-05-12T05:49:02.544Z,7392.00
2023-05-12T05:50:02.574Z,7396.00
2023-05-12T05:51:02.555Z,7396.00
2023-05-12T05:52:02.502Z,7392.00
2023-05-12T05:53:02.508Z,7384.00
2023-05-12T05:54:02.486Z,7396.00
2023-05-12T05:55:02.499Z,7412.00
2023-05-12T05:56:02.520Z,7412.00
2023-05-12T05:57:02.461Z,7452.00
2023-05-12T05:58:02.493Z,7456.00
2023-05-12T05:59:02.453Z,7468.00
2023-05-12T06:00:02.458Z,7488.00
2023-05-12T06:01:02.465Z,7496.00
2023-05-12T06:02:02.432Z,7512.00
2023-05-12T06:03:02.462Z,7524.00
2023-05-12T06:04:02.573Z,7552.00
2023-05-12T06:05:02.401Z,7552.00
2023-05-12T06:06:02.390Z,7580.00
2023-05-12T06:07:02.355Z,7584.00
2023-05-12T06:08:02.352Z,7596.00
2023-05-12T06:09:02.349Z,7612.00
2023-05-12T06:10:02.352Z,7616.00
2023-05-12T06:11:02.301Z,7644.00
2023-05-12T06:12:02.300Z,7668.00
2023-05-12T06:13:02.291Z,7708.00
2023-05-12T06:14:02.268Z,7708.00
2023-05-12T06:15:02.288Z,7732.00
2023-05-12T06:16:02.272Z,7720.00
2023-05-12T06:17:02.315Z,7752.00
2023-05-12T06:18:02.310Z,7776.00
2023-05-12T06:19:02.324Z,7772.00
2023-05-12T06:20:02.231Z,7780.00
2023-05-12T06:21:02.156Z,7796.00
2023-05-12T06:22:02.177Z,7828.00
2023-05-12T06:23:02.166Z,7844.00
2023-05-12T06:24:02.202Z,7868.00
2023-05-12T06:25:02.147Z,7872.00
2023-05-12T06:26:02.137Z,7912.00
2023-05-12T06:27:02.148Z,7940.00
2023-05-12T06:28:02.117Z,7936.00
2023-05-12T06:29:02.151Z,7960.00
2023-05-12T06:30:02.105Z,8008.00
2023-05-12T06:31:02.090Z,8032.00
2023-05-12T06:32:02.156Z,8052.00
2023-05-12T06:33:02.113Z,8080.00
2023-05-12T06:34:02.060Z,8120.00
2023-05-12T06:35:02.018Z,8164.00
2023-05-12T06:36:02.038Z,8184.00
2023-05-12T06:37:02.011Z,8196.00
2023-05-12T06:38:02.030Z,8220.00
2023-05-12T06:39:02.050Z,8252.00
2023-05-12T06:40:01.988Z,8292.00
2023-05-12T06:41:01.972Z,8296.00
2023-05-12T06:42:01.948Z,8348.00
2023-05-12T06:43:01.952Z,8356.00
2023-05-12T06:44:01.921Z,8380.00
2023-05-12T06:45:01.952Z,8400.00
2023-05-12T06:46:01.921Z,8456.00
2023-05-12T06:47:01.872Z,8468.00
2023-05-12T06:48:01.979Z,8508.00
2023-05-12T06:49:01.878Z,8536.00
2023-05-12T06:50:01.857Z,8568.00
2023-05-12T06:51:01.845Z,8596.00
2023-05-12T06:52:01.881Z,8608.00
2023-05-12T06:53:01.897Z,8644.00
2023-05-12T06:54:01.840Z,8684.00
2023-05-12T06:55:01.814Z,8716.00
2023-05-12T06:56:01.806Z,8748.00
2023-05-12T06:57:01.832Z,8772.00
2023-05-12T06:58:01.800Z,8812.00
2023-05-12T06:59:01.752Z,8856.00
2023-05-12T07:00:01.761Z,8880.00
2023-05-12T07:01:01.773Z,8924.00
2023-05-12T07:02:01.862Z,8964.00
2023-05-12T07:03:01.800Z,8984.00
2023-05-12T07:04:01.774Z,9024.00
2023-05-12T07:05:01.679Z,9048.00
2023-05-12T07:06:01.772Z,9088.00
2023-05-12T07:07:01.716Z,9148.00
2023-05-12T07:08:01.668Z,9184.00
2023-05-12T07:09:01.694Z,9228.00
2023-05-12T07:10:01.644Z,9288.00
2023-05-12T07:11:01.697Z,9340.00
2023-05-12T07:12:01.621Z,9388.00
2023-05-12T07:13:01.615Z,9428.00
2023-05-12T07:14:01.579Z,9492.00
2023-05-12T07:15:01.590Z,9540.00
2023-05-12T07:16:01.675Z,9580.00
2023-05-12T07:17:01.576Z,9648.00
2023-05-12T07:18:01.558Z,9712.00
2023-05-12T07:19:01.610Z,9760.00
2023-05-12T07:20:01.521Z,9828.00
2023-05-12T07:21:01.556Z,9900.00
2023-05-12T07:22:01.508Z,9952.00
2023-05-12T07:23:01.490Z,10008.00
2023-05-12T07:24:01.470Z,10064.00
2023-05-12T07:25:01.510Z,10164.00
2023-05-12T07:26:01.473Z,10264.00
2023-05-12T07:27:01.442Z,10352.00
2023-05-12T07:28:01.447Z,10420.00
2023-05-12T07:29:01.486Z,10528.00
2023-05-12T07:30:01.427Z,10680.00
2023-05-12T07:31:01.444Z,10744.00
2023-05-12T07:32:01.381Z,10896.00
2023-05-12T07:33:01.485Z,11068.00
2023-05-12T07:34:01.385Z,11240.00
2023-05-12T07:35:01.411Z,11528.00
2023-05-12T07:36:01.348Z,11828.00
2023-05-12T07:37:01.306Z,12136.00
2023-05-12T07:38:01.312Z,12480.00
2023-05-12T07:39:01.353Z,12924.00
2023-05-12T07:40:01.333Z,13752.00
2023-05-12T07:41:01.303Z,14980.00
2023-05-12T07:42:01.285Z,16044.00
2023-05-12T07:43:01.314Z,17244.00
2023-05-12T07:44:01.271Z,18784.00
2023-05-12T07:45:01.252Z,20192.00
2023-05-12T07:46:01.229Z,22240.00
2023-05-12T07:47:01.203Z,24352.00
2023-05-12T07:48:01.318Z,28640.00
2023-05-12T07:49:01.229Z,33728.00
2023-05-12T07:50:01.215Z,37536.00
2023-05-12T07:51:01.193Z,38528.00
2023-05-12T07:52:01.165Z,39744.00
2023-05-12T07:53:01.237Z,40992.00
2023-05-12T07:54:01.163Z,42592.00
2023-05-12T07:55:01.122Z,44384.00
2023-05-12T07:56:01.169Z,46656.00
2023-05-12T07:57:01.114Z,47488.00
2023-05-12T07:58:01.129Z,48384.00
2023-05-12T07:59:01.116Z,49088.00
2023-05-12T08:00:01.083Z,49248.00
2023-05-12T08:01:01.093Z,49536.00
2023-05-12T08:02:01.117Z,49984.00
2023-05-12T08:03:01.358Z,51072.00
2023-05-12T08:04:01.159Z,51264.00
2023-05-12T08:05:01.067Z,51936.00
2023-05-12T08:06:01.085Z,52832.00
2023-05-12T08:07:01.083Z,53696.00
2023-05-12T08:08:00.990Z,53472.00
2023-05-12T08:09:01.006Z,52256.00
2023-05-12T08:10:00.964Z,52128.00
2023-05-12T08:11:00.961Z,52192.00
2023-05-12T08:12:00.977Z,52736.00
2023-05-12T08:13:00.959Z,52768.00
2023-05-12T08:14:00.932Z,53152.00
2023-05-12T08:15:00.918Z,53824.00
2023-05-12T08:16:00.948Z,54496.00
2023-05-12T08:17:00.968Z,55104.00
2023-05-12T08:18:00.988Z,55072.00
2023-05-12T08:19:00.926Z,54944.00
2023-05-12T08:20:00.896Z,54880.00
2023-05-12T08:21:00.897Z,55520.00
2023-05-12T08:22:00.833Z,56096.00
2023-05-12T08:23:01.092Z,55680.00
2023-05-12T08:24:00.807Z,54464.00
2023-05-12T08:25:00.849Z,54432.00
2023-05-12T08:26:00.856Z,56160.00
2023-05-12T08:27:00.788Z,57248.00
2023-05-12T08:28:00.775Z,58432.00
2023-05-12T08:29:00.743Z,58112.00
2023-05-12T08:30:00.741Z,57536.00
2023-05-12T08:31:03.324Z,57984.00
2023-05-12T08:32:00.771Z,58592.00
2023-05-12T08:33:00.749Z,58912.00
2023-05-12T08:34:09.749Z,58240.00
2023-05-12T08:35:01.761Z,57760.00
2023-05-12T08:36:00.742Z,57984.00
2023-05-12T08:37:00.656Z,58848.00
2023-05-12T08:38:00.642Z,60224.00
2023-05-12T08:39:00.673Z,60864.00
2023-05-12T08:40:00.689Z,60352.00
2023-05-12T08:41:00.641Z,61024.00
2023-05-12T08:42:00.594Z,61792.00
2023-05-12T08:43:01.854Z,62432.00
2023-05-12T08:44:00.624Z,61664.00
2023-05-12T08:45:00.624Z,60096.00
2023-05-12T08:46:00.586Z,61920.00
2023-05-12T08:47:00.627Z,63872.00
2023-05-12T08:48:00.658Z,67360.00
2023-05-12T08:49:00.607Z,69120.00
2023-05-12T08:50:00.516Z,60192.00
2023-05-12T08:51:00.531Z,60192.00
2023-05-12T08:52:00.531Z,60000.00
2023-05-12T08:53:00.495Z,59840.00
2023-05-12T08:54:00.540Z,60256.00
2023-05-12T08:55:01.030Z,60448.00
2023-05-12T08:58:00.502Z,60096.00
2023-05-12T08:59:00.481Z,60256.00
2023-05-12T09:00:00.438Z,60448.00
2023-05-12T09:01:00.448Z,60704.00
2023-05-12T09:02:00.413Z,59936.00
2023-05-12T09:03:00.475Z,60064.00
2023-05-12T09:04:00.418Z,60288.00
2023-05-12T09:05:00.511Z,60320.00
2023-05-12T09:06:00.349Z,60096.00
2023-05-12T09:07:00.382Z,60320.00
2023-05-12T09:08:00.390Z,60288.00
2023-05-12T09:09:00.333Z,59168.00
2023-05-12T09:10:00.318Z,58592.00
2023-05-12T09:11:00.314Z,59072.00
2023-05-12T09:12:00.302Z,59552.00
2023-05-12T09:13:00.321Z,60128.00
2023-05-12T09:14:00.335Z,61152.00
2023-05-12T09:15:00.246Z,62848.00
2023-05-12T09:16:00.274Z,61312.00
2023-05-12T09:17:00.318Z,60416.00
2023-05-12T09:18:00.343Z,60288.00
2023-05-12T09:19:00.254Z,61664.00
2023-05-12T09:20:00.217Z,63488.00
2023-05-12T09:21:00.203Z,63232.00
2023-05-12T09:22:00.212Z,63232.00
2023-05-12T09:23:00.209Z,63936.00
2023-05-12T09:24:00.205Z,66080.00
2023-05-12T09:25:00.160Z,69088.00
2023-05-12T09:26:00.180Z,68320.00
2023-05-12T09:27:00.192Z,66848.00
2023-05-12T09:28:00.150Z,65952.00
2023-05-12T09:29:00.139Z,65568.00
2023-05-12T09:30:00.154Z,67136.00
2023-05-12T09:31:00.157Z,71264.00
2023-05-12T09:32:00.277Z,71968.00
2023-05-12T09:33:00.177Z,68800.00
2023-05-12T09:34:00.079Z,67104.00
2023-05-12T09:35:00.047Z,67904.00
2023-05-12T09:36:00.135Z,67776.00
2023-05-12T09:37:00.023Z,66656.00
2023-05-12T09:38:00.006Z,67648.00
2023-05-12T09:39:00.012Z,67072.00
2023-05-12T09:40:00.000Z,67616.00
2023-05-12T09:41:00.023Z,65760.00
2023-05-12T09:41:59.991Z,66912.00
2023-05-12T09:42:59.932Z,68704.00
2023-05-12T09:43:59.943Z,69600.00
2023-05-12T09:44:59.937Z,68960.00
2023-05-12T09:45:59.991Z,69376.00
2023-05-12T09:46:59.902Z,68448.00
2023-05-12T09:47:59.985Z,67808.00
2023-05-12T09:48:59.918Z,69568.00
2023-05-12T09:49:59.939Z,68992.00
2023-05-12T09:50:59.922Z,69696.00
2023-05-12T09:51:59.869Z,69248.00
2023-05-12T09:52:59.855Z,70176.00
2023-05-12T09:53:59.841Z,71712.00
2023-05-12T09:54:59.831Z,73376.00
2023-05-12T09:55:59.803Z,72064.00
2023-05-12T09:56:59.877Z,70336.00
2023-05-12T09:57:59.816Z,70304.00
2023-05-12T09:58:59.784Z,69952.00
2023-05-12T09:59:59.812Z,70464.00
2023-05-12T10:01:21.006Z,71936.00
2023-05-12T10:02:00.877Z,71008.00
2023-05-12T10:02:59.805Z,69472.00
2023-05-12T10:03:59.803Z,68832.00
2023-05-12T10:04:59.767Z,69056.00
2023-05-12T10:05:59.710Z,67392.00
2023-05-12T10:06:59.730Z,68704.00
2023-05-12T10:07:59.718Z,70144.00
2023-05-12T10:08:59.718Z,70240.00
2023-05-12T10:09:59.689Z,68416.00
2023-05-12T10:10:59.679Z,68736.00
2023-05-12T10:11:59.625Z,68704.00
2023-05-12T10:12:59.677Z,68416.00
2023-05-12T10:13:59.672Z,67584.00
2023-05-12T10:14:59.640Z,67392.00
2023-05-12T10:15:59.585Z,68288.00
2023-05-12T10:16:59.712Z,68224.00
2023-05-12T10:17:59.572Z,66816.00
2023-05-12T10:18:59.658Z,65216.00
2023-05-12T10:19:59.581Z,64896.00
2023-05-12T10:20:59.554Z,65888.00
2023-05-12T10:21:59.543Z,66624.00
2023-05-12T10:22:59.523Z,67392.00
2023-05-12T10:23:59.558Z,70912.00
2023-05-12T10:24:59.490Z,70976.00
2023-05-12T10:25:59.473Z,73664.00
2023-05-12T10:26:59.780Z,72384.00
2023-05-12T10:27:59.539Z,69600.00
2023-05-12T10:28:59.493Z,70176.00
2023-05-12T10:29:59.460Z,73184.00
2023-05-12T10:30:59.461Z,75872.00
2023-05-12T10:31:59.424Z,75776.00
2023-05-12T10:32:59.561Z,75584.00
2023-05-12T10:33:59.438Z,76800.00
2023-05-12T10:35:00.769Z,76768.00
2023-05-12T10:35:59.377Z,77888.00
2023-05-12T10:36:59.394Z,75616.00
2023-05-12T10:37:59.485Z,81024.00
2023-05-12T10:38:59.454Z,78688.00
2023-05-12T10:39:59.366Z,76544.00
2023-05-12T10:40:59.349Z,75232.00
2023-05-12T10:41:59.306Z,77536.00
2023-05-12T10:42:59.349Z,83840.00
2023-05-12T10:43:59.329Z,83552.00
2023-05-12T10:44:59.281Z,84032.00
2023-05-12T10:45:59.299Z,79808.00
2023-05-12T10:46:59.337Z,78944.00
2023-05-12T10:47:59.359Z,78720.00
2023-05-12T10:48:59.260Z,80416.00
2023-05-12T10:49:59.266Z,82400.00
2023-05-12T10:50:59.226Z,84608.00
2023-05-12T10:51:59.264Z,84640.00
2023-05-12T10:52:59.224Z,83360.00
2023-05-12T10:53:59.224Z,81184.00
2023-05-12T10:54:59.213Z,83008.00
2023-05-12T10:55:59.418Z,87136.00
2023-05-12T10:56:59.452Z,86240.00
2023-05-12T10:57:59.369Z,84576.00
2023-05-12T10:58:59.309Z,84448.00
2023-05-12T10:59:59.823Z,87648.00
2023-05-12T11:00:59.615Z,72256.00
2023-05-12T11:01:59.505Z,89920.00
2023-05-12T11:03:04.092Z,91520.00
2023-05-12T11:04:00.283Z,91776.00
2023-05-12T11:04:59.308Z,91712.00
2023-05-12T11:05:59.287Z,91680.00
2023-05-12T11:06:59.541Z,89440.00
2023-05-12T11:07:59.196Z,88192.00
2023-05-12T11:08:59.290Z,89728.00
2023-05-12T11:10:01.229Z,92448.00
2023-05-12T11:10:59.415Z,91392.00
2023-05-12T11:11:59.457Z,91520.00
2023-05-12T11:12:58.977Z,91904.00
2023-05-12T11:13:58.976Z,92288.00
2023-05-12T11:14:59.010Z,89888.00
2023-05-12T11:15:59.068Z,89088.00
2023-05-12T11:16:58.986Z,89472.00
2023-05-12T11:17:58.978Z,88576.00
2023-05-12T11:18:58.977Z,18616.00
2023-05-12T11:19:58.991Z,50592.00
2023-05-12T11:20:58.900Z,89184.00
2023-05-12T11:21:58.928Z,88416.00
2023-05-12T11:22:58.889Z,88800.00
2023-05-12T11:23:58.913Z,88928.00
2023-05-12T11:24:58.952Z,87872.00
2023-05-12T11:25:58.956Z,88640.00
2023-05-12T11:26:58.838Z,87872.00
2023-05-12T11:27:58.854Z,86880.00
2023-05-12T11:28:58.863Z,84896.00
2023-05-12T11:29:58.878Z,85440.00
2023-05-12T11:30:58.826Z,83968.00
2023-05-12T11:31:58.916Z,84096.00
2023-05-12T11:32:58.794Z,84576.00
2023-05-12T11:34:10.732Z,84352.00
2023-05-12T11:34:59.775Z,85376.00
2023-05-12T11:35:58.760Z,85472.00
2023-05-12T11:36:58.760Z,33536.00
2023-05-12T11:37:58.799Z,80704.00
2023-05-12T11:38:58.748Z,80384.00
2023-05-12T11:39:58.693Z,81408.00
2023-05-12T11:40:58.700Z,78688.00
2023-05-12T11:42:09.125Z,77920.00
2023-05-12T11:42:59.708Z,78560.00
2023-05-12T11:43:58.700Z,78336.00
2023-05-12T11:44:58.682Z,79232.00
2023-05-12T11:45:58.719Z,78432.00
2023-05-12T11:46:58.678Z,78336.00
2023-05-12T11:47:59.305Z,79424.00
2023-05-12T11:48:58.639Z,80288.00
2023-05-12T11:49:58.652Z,80576.00
2023-05-12T11:50:58.603Z,80384.00
2023-05-12T11:51:58.625Z,82720.00
2023-05-12T11:52:58.619Z,49056.00
2023-05-12T11:53:58.604Z,74144.00
2023-05-12T11:54:58.631Z,80928.00
2023-05-12T11:55:58.561Z,24864.00
2023-05-12T11:56:58.801Z,38560.00
2023-05-12T11:57:58.579Z,85600.00
2023-05-12T11:58:58.530Z,85632.00
2023-05-12T11:59:58.507Z,85312.00
2023-05-12T12:00:58.498Z,86368.00
2023-05-12T12:01:58.550Z,86464.00
2023-05-12T12:02:58.558Z,85792.00
2023-05-12T12:03:58.544Z,85056.00
2023-05-12T12:04:58.456Z,83840.00
2023-05-12T12:05:58.515Z,83872.00
2023-05-12T12:06:58.467Z,85856.00
2023-05-12T12:07:58.447Z,87424.00
2023-05-12T12:08:58.410Z,21536.00
2023-05-12T12:09:58.418Z,19232.00
2023-05-12T12:10:58.420Z,19392.00
2023-05-12T12:11:58.410Z,16912.00
2023-05-12T12:12:58.368Z,15780.00
2023-05-12T12:13:58.407Z,15264.00
2023-05-12T12:14:58.350Z,15756.00